sensor_id;sensor_type;location;lat;lon;timestamp;temperature;humidity
28548;DHT22;68292;49.600;8.746;2023-05-16T00:01:27;20.50;52.10
28548;DHT22;68292;49.600;8.746;2023-05-16T00:03:55;20.50;52.10
28548;DHT22;68292;49.600;8.746;2023-05-16T00:06:24;20.50;52.20
28548;DHT22;68292;49.600;8.746;2023-05-16T00:08:52;20.50;52.20
28548;DHT22;68292;49.600;8.746;2023-05-16T00:11:20;20.50;52.20
28548;DHT22;68292;49.600;8.746;2023-05-16T00:13:50;20.50;52.20
28548;DHT22;68292;49.600;8.746;2023-05-16T00:16:19;20.50;52.30
28548;DHT22;68292;49.600;8.746;2023-05-16T00:18:47;20.50;52.40
28548;DHT22;68292;49.600;8.746;2023-05-16T00:21:16;20.50;52.40
28548;DHT22;68292;49.600;8.746;2023-05-16T00:23:44;20.50;52.40
28548;DHT22;68292;49.600;8.746;2023-05-16T00:26:12;20.50;52.40
28548;DHT22;68292;49.600;8.746;2023-05-16T00:28:40;20.50;52.40
28548;DHT22;68292;49.600;8.746;2023-05-16T00:31:09;20.50;52.50
28548;DHT22;68292;49.600;8.746;2023-05-16T00:33:37;20.50;52.50
28548;DHT22;68292;49.600;8.746;2023-05-16T00:36:06;20.50;52.50
28548;DHT22;68292;49.600;8.746;2023-05-16T00:38:34;20.50;52.50
28548;DHT22;68292;49.600;8.746;2023-05-16T00:41:03;20.50;52.50
28548;DHT22;68292;49.600;8.746;2023-05-16T00:43:31;20.50;52.50
28548;DHT22;68292;49.600;8.746;2023-05-16T00:46:00;20.50;52.50
28548;DHT22;68292;49.600;8.746;2023-05-16T00:48:29;20.50;52.60
28548;DHT22;68292;49.600;8.746;2023-05-16T00:50:59;20.50;52.60
28548;DHT22;68292;49.600;8.746;2023-05-16T00:53:28;20.50;52.60
28548;DHT22;68292;49.600;8.746;2023-05-16T00:55:56;20.50;52.60
28548;DHT22;68292;49.600;8.746;2023-05-16T00:58:25;20.50;52.60
28548;DHT22;68292;49.600;8.746;2023-05-16T01:00:54;20.50;52.60
28548;DHT22;68292;49.600;8.746;2023-05-16T01:03:24;20.50;52.60
28548;DHT22;68292;49.600;8.746;2023-05-16T01:05:54;20.50;52.60
28548;DHT22;68292;49.600;8.746;2023-05-16T01:08:22;20.50;52.70
28548;DHT22;68292;49.600;8.746;2023-05-16T01:10:59;20.50;52.70
28548;DHT22;68292;49.600;8.746;2023-05-16T01:13:35;20.50;52.80
28548;DHT22;68292;49.600;8.746;2023-05-16T01:16:12;20.50;52.80
28548;DHT22;68292;49.600;8.746;2023-05-16T01:18:51;20.50;52.70
28548;DHT22;68292;49.600;8.746;2023-05-16T01:21:33;20.50;52.70
28548;DHT22;68292;49.600;8.746;2023-05-16T01:24:13;20.50;52.80
28548;DHT22;68292;49.600;8.746;2023-05-16T01:26:44;20.50;52.80
28548;DHT22;68292;49.600;8.746;2023-05-16T01:29:13;20.50;52.80
28548;DHT22;68292;49.600;8.746;2023-05-16T01:31:42;20.50;52.80
28548;DHT22;68292;49.600;8.746;2023-05-16T01:34:11;20.50;52.80
28548;DHT22;68292;49.600;8.746;2023-05-16T01:36:44;20.50;52.80
28548;DHT22;68292;49.600;8.746;2023-05-16T01:39:21;20.50;53.00
28548;DHT22;68292;49.600;8.746;2023-05-16T01:42:02;20.40;52.90
28548;DHT22;68292;49.600;8.746;2023-05-16T01:44:35;20.40;53.00
28548;DHT22;68292;49.600;8.746;2023-05-16T01:47:09;20.50;53.00
28548;DHT22;68292;49.600;8.746;2023-05-16T01:49:44;20.50;53.00
28548;DHT22;68292;49.600;8.746;2023-05-16T01:52:18;20.40;53.00
28548;DHT22;68292;49.600;8.746;2023-05-16T01:54:47;20.40;53.00
28548;DHT22;68292;49.600;8.746;2023-05-16T01:57:42;20.40;53.00
28548;DHT22;68292;49.600;8.746;2023-05-16T02:00:30;20.40;53.10
28548;DHT22;68292;49.600;8.746;2023-05-16T02:02:58;20.50;53.10
28548;DHT22;68292;49.600;8.746;2023-05-16T02:05:27;20.50;53.10
28548;DHT22;68292;49.600;8.746;2023-05-16T02:07:57;20.50;53.10
28548;DHT22;68292;49.600;8.746;2023-05-16T02:10:26;20.40;53.10
28548;DHT22;68292;49.600;8.746;2023-05-16T02:12:56;20.50;53.10
28548;DHT22;68292;49.600;8.746;2023-05-16T02:15:24;20.40;53.10
28548;DHT22;68292;49.600;8.746;2023-05-16T02:17:53;20.40;53.00
28548;DHT22;68292;49.600;8.746;2023-05-16T02:20:21;20.40;53.00
28548;DHT22;68292;49.600;8.746;2023-05-16T02:22:49;20.40;53.00
28548;DHT22;68292;49.600;8.746;2023-05-16T02:25:18;20.40;53.10
28548;DHT22;68292;49.600;8.746;2023-05-16T02:27:46;20.40;53.10
28548;DHT22;68292;49.600;8.746;2023-05-16T02:30:16;20.40;53.10
28548;DHT22;68292;49.600;8.746;2023-05-16T02:32:44;20.50;53.30
28548;DHT22;68292;49.600;8.746;2023-05-16T02:35:12;20.40;53.20
28548;DHT22;68292;49.600;8.746;2023-05-16T02:37:43;20.40;53.20
28548;DHT22;68292;49.600;8.746;2023-05-16T02:40:12;20.40;53.30
28548;DHT22;68292;49.600;8.746;2023-05-16T02:42:40;20.50;53.40
28548;DHT22;68292;49.600;8.746;2023-05-16T02:45:09;20.50;53.40
28548;DHT22;68292;49.600;8.746;2023-05-16T02:47:39;20.40;53.40
28548;DHT22;68292;49.600;8.746;2023-05-16T02:50:08;20.40;53.40
28548;DHT22;68292;49.600;8.746;2023-05-16T02:52:36;20.40;53.40
28548;DHT22;68292;49.600;8.746;2023-05-16T02:55:05;20.40;53.40
28548;DHT22;68292;49.600;8.746;2023-05-16T02:57:36;20.40;53.40
28548;DHT22;68292;49.600;8.746;2023-05-16T03:00:06;20.40;53.30
28548;DHT22;68292;49.600;8.746;2023-05-16T03:02:38;20.40;53.30
28548;DHT22;68292;49.600;8.746;2023-05-16T03:05:07;20.40;53.30
28548;DHT22;68292;49.600;8.746;2023-05-16T03:07:36;20.40;53.20
28548;DHT22;68292;49.600;8.746;2023-05-16T03:10:05;20.40;53.20
28548;DHT22;68292;49.600;8.746;2023-05-16T03:12:34;20.40;53.20
28548;DHT22;68292;49.600;8.746;2023-05-16T03:15:03;20.40;53.10
28548;DHT22;68292;49.600;8.746;2023-05-16T03:17:31;20.40;53.10
28548;DHT22;68292;49.600;8.746;2023-05-16T03:20:03;20.40;53.10
28548;DHT22;68292;49.600;8.746;2023-05-16T03:22:34;20.40;53.10
28548;DHT22;68292;49.600;8.746;2023-05-16T03:25:03;20.30;53.00
28548;DHT22;68292;49.600;8.746;2023-05-16T03:27:31;20.30;53.10
28548;DHT22;68292;49.600;8.746;2023-05-16T03:29:59;20.30;53.10
28548;DHT22;68292;49.600;8.746;2023-05-16T03:32:28;20.30;53.20
28548;DHT22;68292;49.600;8.746;2023-05-16T03:34:56;20.30;53.20
28548;DHT22;68292;49.600;8.746;2023-05-16T03:37:25;20.20;53.20
28548;DHT22;68292;49.600;8.746;2023-05-16T03:39:53;20.20;53.30
28548;DHT22;68292;49.600;8.746;2023-05-16T03:42:21;20.20;53.30
28548;DHT22;68292;49.600;8.746;2023-05-16T03:44:49;20.20;53.40
28548;DHT22;68292;49.600;8.746;2023-05-16T03:47:18;20.20;53.40
28548;DHT22;68292;49.600;8.746;2023-05-16T03:49:46;20.20;53.50
28548;DHT22;68292;49.600;8.746;2023-05-16T03:52:14;20.20;53.40
28548;DHT22;68292;49.600;8.746;2023-05-16T03:54:43;20.20;53.40
28548;DHT22;68292;49.600;8.746;2023-05-16T03:57:12;20.20;53.50
28548;DHT22;68292;49.600;8.746;2023-05-16T03:59:40;20.20;53.50
28548;DHT22;68292;49.600;8.746;2023-05-16T04:02:08;20.20;53.40
28548;DHT22;68292;49.600;8.746;2023-05-16T04:04:36;20.20;53.50
28548;DHT22;68292;49.600;8.746;2023-05-16T04:07:04;20.20;53.50
28548;DHT22;68292;49.600;8.746;2023-05-16T04:09:33;20.20;53.50
28548;DHT22;68292;49.600;8.746;2023-05-16T04:12:02;20.20;53.50
28548;DHT22;68292;49.600;8.746;2023-05-16T04:14:31;20.20;53.60
28548;DHT22;68292;49.600;8.746;2023-05-16T04:16:59;20.20;53.60
28548;DHT22;68292;49.600;8.746;2023-05-16T04:19:28;20.20;53.60
28548;DHT22;68292;49.600;8.746;2023-05-16T04:21:56;20.20;53.70
28548;DHT22;68292;49.600;8.746;2023-05-16T04:24:24;20.20;53.70
28548;DHT22;68292;49.600;8.746;2023-05-16T04:26:54;20.20;53.70
28548;DHT22;68292;49.600;8.746;2023-05-16T04:29:23;20.20;53.70
28548;DHT22;68292;49.600;8.746;2023-05-16T04:31:52;20.20;53.70
28548;DHT22;68292;49.600;8.746;2023-05-16T04:34:20;20.20;53.80
28548;DHT22;68292;49.600;8.746;2023-05-16T04:36:53;20.20;53.80
28548;DHT22;68292;49.600;8.746;2023-05-16T04:39:21;20.20;53.80
28548;DHT22;68292;49.600;8.746;2023-05-16T04:41:49;20.20;53.80
28548;DHT22;68292;49.600;8.746;2023-05-16T04:44:17;20.20;53.80
28548;DHT22;68292;49.600;8.746;2023-05-16T04:46:47;20.20;53.90
28548;DHT22;68292;49.600;8.746;2023-05-16T04:49:15;20.20;54.00
28548;DHT22;68292;49.600;8.746;2023-05-16T04:51:43;20.20;53.90
28548;DHT22;68292;49.600;8.746;2023-05-16T04:54:11;20.20;53.90
28548;DHT22;68292;49.600;8.746;2023-05-16T04:56:39;20.30;54.00
28548;DHT22;68292;49.600;8.746;2023-05-16T04:59:07;20.20;54.00
28548;DHT22;68292;49.600;8.746;2023-05-16T05:01:36;20.20;54.00
28548;DHT22;68292;49.600;8.746;2023-05-16T05:04:06;20.30;54.00
28548;DHT22;68292;49.600;8.746;2023-05-16T05:06:34;20.20;54.00
28548;DHT22;68292;49.600;8.746;2023-05-16T05:09:04;20.30;54.00
28548;DHT22;68292;49.600;8.746;2023-05-16T05:11:32;20.30;54.10
28548;DHT22;68292;49.600;8.746;2023-05-16T05:14:01;20.30;54.00
28548;DHT22;68292;49.600;8.746;2023-05-16T05:16:29;20.30;54.00
28548;DHT22;68292;49.600;8.746;2023-05-16T05:18:57;20.30;54.00
28548;DHT22;68292;49.600;8.746;2023-05-16T05:21:27;20.30;54.00
28548;DHT22;68292;49.600;8.746;2023-05-16T05:23:56;20.30;54.10
28548;DHT22;68292;49.600;8.746;2023-05-16T05:26:24;20.30;54.00
28548;DHT22;68292;49.600;8.746;2023-05-16T05:28:54;20.30;54.00
28548;DHT22;68292;49.600;8.746;2023-05-16T05:31:31;20.30;54.00
28548;DHT22;68292;49.600;8.746;2023-05-16T05:34:01;20.30;54.00
28548;DHT22;68292;49.600;8.746;2023-05-16T05:36:30;20.30;54.00
28548;DHT22;68292;49.600;8.746;2023-05-16T05:38:58;20.30;54.00
28548;DHT22;68292;49.600;8.746;2023-05-16T05:41:26;20.30;54.00
28548;DHT22;68292;49.600;8.746;2023-05-16T05:43:54;20.30;54.00
28548;DHT22;68292;49.600;8.746;2023-05-16T05:46:23;20.30;54.00
28548;DHT22;68292;49.600;8.746;2023-05-16T05:48:51;20.30;54.00
28548;DHT22;68292;49.600;8.746;2023-05-16T05:51:19;20.30;54.00
28548;DHT22;68292;49.600;8.746;2023-05-16T05:53:49;20.30;54.00
28548;DHT22;68292;49.600;8.746;2023-05-16T05:56:17;20.30;54.00
28548;DHT22;68292;49.600;8.746;2023-05-16T05:58:46;20.30;54.00
28548;DHT22;68292;49.600;8.746;2023-05-16T06:01:15;20.30;54.00
28548;DHT22;68292;49.600;8.746;2023-05-16T06:03:43;20.30;54.00
28548;DHT22;68292;49.600;8.746;2023-05-16T06:06:12;20.30;54.00
28548;DHT22;68292;49.600;8.746;2023-05-16T06:08:41;20.30;54.00
28548;DHT22;68292;49.600;8.746;2023-05-16T06:11:10;20.30;54.00
28548;DHT22;68292;49.600;8.746;2023-05-16T06:13:39;20.30;54.00
28548;DHT22;68292;49.600;8.746;2023-05-16T06:16:07;20.30;53.90
28548;DHT22;68292;49.600;8.746;2023-05-16T06:18:35;20.30;53.90
28548;DHT22;68292;49.600;8.746;2023-05-16T06:21:04;20.30;53.80
28548;DHT22;68292;49.600;8.746;2023-05-16T06:23:32;20.30;53.90
28548;DHT22;68292;49.600;8.746;2023-05-16T06:26:01;20.30;53.80
28548;DHT22;68292;49.600;8.746;2023-05-16T06:28:31;20.30;53.70
28548;DHT22;68292;49.600;8.746;2023-05-16T06:30:59;20.30;53.80
28548;DHT22;68292;49.600;8.746;2023-05-16T06:33:27;20.30;53.70
28548;DHT22;68292;49.600;8.746;2023-05-16T06:35:55;20.30;53.80
28548;DHT22;68292;49.600;8.746;2023-05-16T06:38:23;20.30;53.70
28548;DHT22;68292;49.600;8.746;2023-05-16T06:40:51;20.30;53.70
28548;DHT22;68292;49.600;8.746;2023-05-16T06:43:19;20.30;53.70
28548;DHT22;68292;49.600;8.746;2023-05-16T06:45:48;20.30;53.70
28548;DHT22;68292;49.600;8.746;2023-05-16T06:48:17;20.30;53.70
28548;DHT22;68292;49.600;8.746;2023-05-16T06:50:47;20.30;53.60
28548;DHT22;68292;49.600;8.746;2023-05-16T06:53:15;20.30;53.60
28548;DHT22;68292;49.600;8.746;2023-05-16T06:55:43;20.30;53.60
28548;DHT22;68292;49.600;8.746;2023-05-16T06:58:12;20.30;53.60
28548;DHT22;68292;49.600;8.746;2023-05-16T07:00:40;20.30;53.60
28548;DHT22;68292;49.600;8.746;2023-05-16T07:03:11;20.30;53.60
28548;DHT22;68292;49.600;8.746;2023-05-16T07:05:39;20.30;53.60
28548;DHT22;68292;49.600;8.746;2023-05-16T07:08:08;20.20;53.60
28548;DHT22;68292;49.600;8.746;2023-05-16T07:10:36;20.20;53.60
28548;DHT22;68292;49.600;8.746;2023-05-16T07:13:05;20.20;53.60
28548;DHT22;68292;49.600;8.746;2023-05-16T07:15:33;20.20;53.70
28548;DHT22;68292;49.600;8.746;2023-05-16T07:18:01;20.20;53.70
28548;DHT22;68292;49.600;8.746;2023-05-16T07:20:31;20.20;53.60
28548;DHT22;68292;49.600;8.746;2023-05-16T07:22:59;20.20;53.70
28548;DHT22;68292;49.600;8.746;2023-05-16T07:25:27;20.20;54.30
28548;DHT22;68292;49.600;8.746;2023-05-16T07:27:56;20.20;53.70
28548;DHT22;68292;49.600;8.746;2023-05-16T07:30:24;20.20;53.70
28548;DHT22;68292;49.600;8.746;2023-05-16T07:32:52;20.20;53.70
28548;DHT22;68292;49.600;8.746;2023-05-16T07:35:20;20.20;53.70
28548;DHT22;68292;49.600;8.746;2023-05-16T07:37:50;20.20;53.70
28548;DHT22;68292;49.600;8.746;2023-05-16T07:40:18;20.20;53.70
28548;DHT22;68292;49.600;8.746;2023-05-16T07:42:49;20.20;53.70
28548;DHT22;68292;49.600;8.746;2023-05-16T07:45:17;20.20;53.70
28548;DHT22;68292;49.600;8.746;2023-05-16T07:47:45;20.20;53.70
28548;DHT22;68292;49.600;8.746;2023-05-16T07:50:13;20.20;53.70
28548;DHT22;68292;49.600;8.746;2023-05-16T07:52:42;20.20;53.70
28548;DHT22;68292;49.600;8.746;2023-05-16T07:55:11;20.20;53.60
28548;DHT22;68292;49.600;8.746;2023-05-16T07:57:39;20.20;53.50
28548;DHT22;68292;49.600;8.746;2023-05-16T08:00:10;20.20;53.40
28548;DHT22;68292;49.600;8.746;2023-05-16T08:02:39;20.20;53.40
28548;DHT22;68292;49.600;8.746;2023-05-16T08:05:08;20.20;53.40
28548;DHT22;68292;49.600;8.746;2023-05-16T08:07:36;20.20;53.20
28548;DHT22;68292;49.600;8.746;2023-05-16T08:10:05;20.10;53.10
28548;DHT22;68292;49.600;8.746;2023-05-16T08:12:38;20.20;53.10
28548;DHT22;68292;49.600;8.746;2023-05-16T08:15:07;20.10;53.00
28548;DHT22;68292;49.600;8.746;2023-05-16T08:17:35;20.10;53.10
28548;DHT22;68292;49.600;8.746;2023-05-16T08:20:05;20.20;53.10
28548;DHT22;68292;49.600;8.746;2023-05-16T08:22:34;20.10;53.00
28548;DHT22;68292;49.600;8.746;2023-05-16T08:25:02;20.20;53.10
28548;DHT22;68292;49.600;8.746;2023-05-16T08:27:30;20.20;53.10
28548;DHT22;68292;49.600;8.746;2023-05-16T08:30:00;20.20;53.10
28548;DHT22;68292;49.600;8.746;2023-05-16T08:32:28;20.20;53.10
28548;DHT22;68292;49.600;8.746;2023-05-16T08:34:57;20.20;53.20
28548;DHT22;68292;49.600;8.746;2023-05-16T08:37:25;20.20;53.20
28548;DHT22;68292;49.600;8.746;2023-05-16T08:39:53;20.20;53.20
28548;DHT22;68292;49.600;8.746;2023-05-16T08:42:21;20.30;53.20
28548;DHT22;68292;49.600;8.746;2023-05-16T08:44:49;20.30;53.10
28548;DHT22;68292;49.600;8.746;2023-05-16T08:47:19;20.30;53.20
28548;DHT22;68292;49.600;8.746;2023-05-16T08:49:50;20.30;53.20
28548;DHT22;68292;49.600;8.746;2023-05-16T08:52:20;20.30;53.20
28548;DHT22;68292;49.600;8.746;2023-05-16T08:54:49;20.30;53.20
28548;DHT22;68292;49.600;8.746;2023-05-16T08:57:34;20.30;53.20
28548;DHT22;68292;49.600;8.746;2023-05-16T09:00:05;20.30;53.10
28548;DHT22;68292;49.600;8.746;2023-05-16T09:02:40;20.30;53.10
28548;DHT22;68292;49.600;8.746;2023-05-16T09:05:11;20.30;53.00
28548;DHT22;68292;49.600;8.746;2023-05-16T09:07:40;20.30;53.10
28548;DHT22;68292;49.600;8.746;2023-05-16T09:10:10;20.30;53.10
28548;DHT22;68292;49.600;8.746;2023-05-16T09:12:39;20.30;53.20
28548;DHT22;68292;49.600;8.746;2023-05-16T09:15:08;20.30;53.20
28548;DHT22;68292;49.600;8.746;2023-05-16T09:17:41;20.30;53.20
28548;DHT22;68292;49.600;8.746;2023-05-16T09:20:12;20.30;53.20
28548;DHT22;68292;49.600;8.746;2023-05-16T09:22:50;20.30;53.10
28548;DHT22;68292;49.600;8.746;2023-05-16T09:25:20;20.30;53.10
28548;DHT22;68292;49.600;8.746;2023-05-16T09:27:58;20.30;53.00
28548;DHT22;68292;49.600;8.746;2023-05-16T09:30:29;20.30;53.00
28548;DHT22;68292;49.600;8.746;2023-05-16T09:33:00;20.30;52.80
28548;DHT22;68292;49.600;8.746;2023-05-16T09:35:30;20.30;52.70
28548;DHT22;68292;49.600;8.746;2023-05-16T09:38:01;20.20;52.60
28548;DHT22;68292;49.600;8.746;2023-05-16T09:40:29;20.20;52.40
28548;DHT22;68292;49.600;8.746;2023-05-16T09:43:02;20.20;52.30
28548;DHT22;68292;49.600;8.746;2023-05-16T09:45:31;20.20;52.20
28548;DHT22;68292;49.600;8.746;2023-05-16T09:48:04;20.20;52.20
28548;DHT22;68292;49.600;8.746;2023-05-16T09:50:34;20.20;52.20
28548;DHT22;68292;49.600;8.746;2023-05-16T09:53:04;20.20;52.20
28548;DHT22;68292;49.600;8.746;2023-05-16T09:55:32;20.20;52.10
28548;DHT22;68292;49.600;8.746;2023-05-16T09:58:00;20.20;52.10
28548;DHT22;68292;49.600;8.746;2023-05-16T10:00:29;20.10;52.10
28548;DHT22;68292;49.600;8.746;2023-05-16T10:03:00;20.10;52.00
28548;DHT22;68292;49.600;8.746;2023-05-16T10:05:32;20.10;51.90
28548;DHT22;68292;49.600;8.746;2023-05-16T10:08:02;20.10;52.00
28548;DHT22;68292;49.600;8.746;2023-05-16T10:10:34;20.10;51.90
28548;DHT22;68292;49.600;8.746;2023-05-16T10:13:06;20.10;51.80
28548;DHT22;68292;49.600;8.746;2023-05-16T10:15:36;20.10;51.90
28548;DHT22;68292;49.600;8.746;2023-05-16T10:18:06;20.10;51.90
28548;DHT22;68292;49.600;8.746;2023-05-16T10:20:40;20.10;51.80
28548;DHT22;68292;49.600;8.746;2023-05-16T10:23:15;20.10;51.80
28548;DHT22;68292;49.600;8.746;2023-05-16T10:25:46;20.10;51.60
28548;DHT22;68292;49.600;8.746;2023-05-16T10:28:15;20.20;51.70
28548;DHT22;68292;49.600;8.746;2023-05-16T10:30:45;20.10;51.70
28548;DHT22;68292;49.600;8.746;2023-05-16T10:33:16;20.20;51.70
28548;DHT22;68292;49.600;8.746;2023-05-16T10:35:46;20.10;51.50
28548;DHT22;68292;49.600;8.746;2023-05-16T10:38:16;20.20;51.70
28548;DHT22;68292;49.600;8.746;2023-05-16T10:40:46;20.20;51.60
28548;DHT22;68292;49.600;8.746;2023-05-16T10:43:22;20.20;51.70
28548;DHT22;68292;49.600;8.746;2023-05-16T10:45:56;20.20;51.50
28548;DHT22;68292;49.600;8.746;2023-05-16T10:48:31;20.20;51.50
28548;DHT22;68292;49.600;8.746;2023-05-16T10:51:01;20.20;51.40
28548;DHT22;68292;49.600;8.746;2023-05-16T10:53:32;20.20;51.50
28548;DHT22;68292;49.600;8.746;2023-05-16T10:56:06;20.20;51.40
28548;DHT22;68292;49.600;8.746;2023-05-16T10:58:40;20.20;51.30
28548;DHT22;68292;49.600;8.746;2023-05-16T11:01:20;20.20;51.20
28548;DHT22;68292;49.600;8.746;2023-05-16T11:04:02;20.20;51.10
28548;DHT22;68292;49.600;8.746;2023-05-16T11:06:32;20.20;50.90
28548;DHT22;68292;49.600;8.746;2023-05-16T11:09:06;20.20;51.10
28548;DHT22;68292;49.600;8.746;2023-05-16T11:11:46;20.30;50.90
28548;DHT22;68292;49.600;8.746;2023-05-16T11:14:19;20.30;51.00
28548;DHT22;68292;49.600;8.746;2023-05-16T11:16:55;20.30;50.80
28548;DHT22;68292;49.600;8.746;2023-05-16T11:19:33;20.30;51.00
28548;DHT22;68292;49.600;8.746;2023-05-16T11:22:20;20.30;50.90
28548;DHT22;68292;49.600;8.746;2023-05-16T11:24:51;20.30;50.90
28548;DHT22;68292;49.600;8.746;2023-05-16T11:27:23;20.30;51.00
28548;DHT22;68292;49.600;8.746;2023-05-16T11:29:54;20.30;50.90
28548;DHT22;68292;49.600;8.746;2023-05-16T11:32:27;20.30;50.90
28548;DHT22;68292;49.600;8.746;2023-05-16T11:34:57;20.30;50.90
28548;DHT22;68292;49.600;8.746;2023-05-16T11:37:26;20.30;50.80
28548;DHT22;68292;49.600;8.746;2023-05-16T11:39:58;20.30;50.80
28548;DHT22;68292;49.600;8.746;2023-05-16T11:42:29;20.30;50.70
28548;DHT22;68292;49.600;8.746;2023-05-16T11:45:04;20.30;50.60
28548;DHT22;68292;49.600;8.746;2023-05-16T11:47:34;20.30;50.60
28548;DHT22;68292;49.600;8.746;2023-05-16T11:50:05;20.30;50.70
28548;DHT22;68292;49.600;8.746;2023-05-16T11:52:36;20.30;50.50
28548;DHT22;68292;49.600;8.746;2023-05-16T11:55:05;20.30;50.60
28548;DHT22;68292;49.600;8.746;2023-05-16T11:57:33;20.30;50.70
28548;DHT22;68292;49.600;8.746;2023-05-16T12:00:03;20.30;50.80
28548;DHT22;68292;49.600;8.746;2023-05-16T12:02:33;20.30;50.80
28548;DHT22;68292;49.600;8.746;2023-05-16T12:05:07;20.30;50.70
28548;DHT22;68292;49.600;8.746;2023-05-16T12:07:36;20.30;50.50
28548;DHT22;68292;49.600;8.746;2023-05-16T12:10:05;20.30;50.70
28548;DHT22;68292;49.600;8.746;2023-05-16T12:12:34;20.30;50.80
28548;DHT22;68292;49.600;8.746;2023-05-16T12:15:04;20.30;50.80
28548;DHT22;68292;49.600;8.746;2023-05-16T12:17:33;20.30;50.60
28548;DHT22;68292;49.600;8.746;2023-05-16T12:20:03;20.30;50.50
28548;DHT22;68292;49.600;8.746;2023-05-16T12:22:34;20.30;50.60
28548;DHT22;68292;49.600;8.746;2023-05-16T12:25:20;20.30;50.60
28548;DHT22;68292;49.600;8.746;2023-05-16T12:27:48;20.30;50.30
28548;DHT22;68292;49.600;8.746;2023-05-16T12:30:17;20.40;50.50
28548;DHT22;68292;49.600;8.746;2023-05-16T12:32:45;20.30;50.40
28548;DHT22;68292;49.600;8.746;2023-05-16T12:35:13;20.30;50.40
28548;DHT22;68292;49.600;8.746;2023-05-16T12:37:46;20.30;51.20
28548;DHT22;68292;49.600;8.746;2023-05-16T12:40:16;20.30;50.50
28548;DHT22;68292;49.600;8.746;2023-05-16T12:42:48;20.30;50.60
28548;DHT22;68292;49.600;8.746;2023-05-16T12:45:18;20.30;50.70
28548;DHT22;68292;49.600;8.746;2023-05-16T12:47:46;20.40;50.80
28548;DHT22;68292;49.600;8.746;2023-05-16T12:50:15;20.40;50.70
28548;DHT22;68292;49.600;8.746;2023-05-16T12:52:49;20.40;50.50
28548;DHT22;68292;49.600;8.746;2023-05-16T12:55:20;20.40;50.10
28548;DHT22;68292;49.600;8.746;2023-05-16T12:57:49;20.40;50.30
28548;DHT22;68292;49.600;8.746;2023-05-16T13:00:19;20.50;50.40
28548;DHT22;68292;49.600;8.746;2023-05-16T13:02:49;20.50;50.50
28548;DHT22;68292;49.600;8.746;2023-05-16T13:05:18;20.50;50.60
28548;DHT22;68292;49.600;8.746;2023-05-16T13:07:53;20.50;50.40
28548;DHT22;68292;49.600;8.746;2023-05-16T13:10:21;20.60;50.40
28548;DHT22;68292;49.600;8.746;2023-05-16T13:12:49;20.60;50.30
28548;DHT22;68292;49.600;8.746;2023-05-16T13:15:17;20.60;50.10
28548;DHT22;68292;49.600;8.746;2023-05-16T13:17:45;20.60;50.10
28548;DHT22;68292;49.600;8.746;2023-05-16T13:20:14;20.60;50.10
28548;DHT22;68292;49.600;8.746;2023-05-16T13:22:43;20.60;49.90
28548;DHT22;68292;49.600;8.746;2023-05-16T13:25:13;20.60;49.80
28548;DHT22;68292;49.600;8.746;2023-05-16T13:27:41;20.60;49.60
28548;DHT22;68292;49.600;8.746;2023-05-16T13:30:10;20.60;49.70
28548;DHT22;68292;49.600;8.746;2023-05-16T13:32:38;20.60;49.50
28548;DHT22;68292;49.600;8.746;2023-05-16T13:35:07;20.70;49.40
28548;DHT22;68292;49.600;8.746;2023-05-16T13:37:35;20.70;49.20
28548;DHT22;68292;49.600;8.746;2023-05-16T13:40:05;20.70;49.00
28548;DHT22;68292;49.600;8.746;2023-05-16T13:42:37;20.70;48.80
28548;DHT22;68292;49.600;8.746;2023-05-16T13:45:06;20.70;48.70
28548;DHT22;68292;49.600;8.746;2023-05-16T13:47:35;20.70;48.90
28548;DHT22;68292;49.600;8.746;2023-05-16T13:50:04;20.70;48.90
28548;DHT22;68292;49.600;8.746;2023-05-16T13:52:36;20.70;48.70
28548;DHT22;68292;49.600;8.746;2023-05-16T13:55:06;20.70;48.50
28548;DHT22;68292;49.600;8.746;2023-05-16T13:57:36;20.70;48.20
28548;DHT22;68292;49.600;8.746;2023-05-16T14:00:05;20.70;48.20
28548;DHT22;68292;49.600;8.746;2023-05-16T14:02:41;20.70;48.10
28548;DHT22;68292;49.600;8.746;2023-05-16T14:05:10;20.70;48.00
28548;DHT22;68292;49.600;8.746;2023-05-16T14:07:38;20.70;48.00
28548;DHT22;68292;49.600;8.746;2023-05-16T14:10:08;20.70;47.80
28548;DHT22;68292;49.600;8.746;2023-05-16T14:12:37;20.70;47.70
28548;DHT22;68292;49.600;8.746;2023-05-16T14:15:07;20.70;47.80
28548;DHT22;68292;49.600;8.746;2023-05-16T14:17:35;20.70;47.70
28548;DHT22;68292;49.600;8.746;2023-05-16T14:20:05;20.80;47.70
28548;DHT22;68292;49.600;8.746;2023-05-16T14:22:36;20.70;47.70
28548;DHT22;68292;49.600;8.746;2023-05-16T14:25:05;20.70;47.60
28548;DHT22;68292;49.600;8.746;2023-05-16T14:27:34;20.80;47.70
28548;DHT22;68292;49.600;8.746;2023-05-16T14:30:05;20.80;47.70
28548;DHT22;68292;49.600;8.746;2023-05-16T14:32:35;20.80;47.50
28548;DHT22;68292;49.600;8.746;2023-05-16T14:35:04;20.80;47.70
28548;DHT22;68292;49.600;8.746;2023-05-16T14:37:32;20.80;47.60
28548;DHT22;68292;49.600;8.746;2023-05-16T14:40:00;20.80;47.50
28548;DHT22;68292;49.600;8.746;2023-05-16T14:42:30;20.80;47.30
28548;DHT22;68292;49.600;8.746;2023-05-16T14:44:58;20.80;47.20
28548;DHT22;68292;49.600;8.746;2023-05-16T14:47:28;20.80;47.00
28548;DHT22;68292;49.600;8.746;2023-05-16T14:49:57;20.80;46.80
28548;DHT22;68292;49.600;8.746;2023-05-16T14:52:26;20.80;46.80
28548;DHT22;68292;49.600;8.746;2023-05-16T14:54:56;20.80;46.60
28548;DHT22;68292;49.600;8.746;2023-05-16T14:57:24;20.80;46.50
28548;DHT22;68292;49.600;8.746;2023-05-16T14:59:52;20.80;46.80
28548;DHT22;68292;49.600;8.746;2023-05-16T15:02:20;20.80;46.70
28548;DHT22;68292;49.600;8.746;2023-05-16T15:04:50;20.80;46.70
28548;DHT22;68292;49.600;8.746;2023-05-16T15:07:18;20.80;46.30
28548;DHT22;68292;49.600;8.746;2023-05-16T15:09:47;20.80;46.70
28548;DHT22;68292;49.600;8.746;2023-05-16T15:12:15;20.70;46.60
28548;DHT22;68292;49.600;8.746;2023-05-16T15:14:43;20.70;46.30
28548;DHT22;68292;49.600;8.746;2023-05-16T15:17:11;20.70;46.30
28548;DHT22;68292;49.600;8.746;2023-05-16T15:19:39;20.70;46.30
28548;DHT22;68292;49.600;8.746;2023-05-16T15:22:08;20.80;46.40
28548;DHT22;68292;49.600;8.746;2023-05-16T15:24:37;20.70;46.30
28548;DHT22;68292;49.600;8.746;2023-05-16T15:27:05;20.70;46.30
28548;DHT22;68292;49.600;8.746;2023-05-16T15:29:33;20.70;46.30
28548;DHT22;68292;49.600;8.746;2023-05-16T15:32:03;20.70;46.20
28548;DHT22;68292;49.600;8.746;2023-05-16T15:34:34;20.70;45.90
28548;DHT22;68292;49.600;8.746;2023-05-16T15:37:02;20.70;45.90
28548;DHT22;68292;49.600;8.746;2023-05-16T15:39:31;20.70;45.90
28548;DHT22;68292;49.600;8.746;2023-05-16T15:41:59;20.70;45.90
28548;DHT22;68292;49.600;8.746;2023-05-16T15:44:37;20.70;45.90
28548;DHT22;68292;49.600;8.746;2023-05-16T15:47:06;20.80;46.30